createdAt,value
2023-05-19T00:00:32.196Z,76.63
2023-05-19T00:05:55.073Z,76.91
2023-05-19T00:11:00.804Z,76.70
2023-05-19T00:16:06.498Z,77.13
2023-05-19T00:21:11.740Z,77.39
2023-05-19T00:26:16.429Z,77.75
2023-05-19T00:31:22.195Z,77.99
2023-05-19T00:36:26.616Z,78.04
2023-05-19T00:41:31.095Z,77.89
2023-05-19T00:46:35.271Z,77.80
2023-05-19T00:51:41.614Z,78.01
2023-05-19T00:56:45.953Z,78.08
2023-05-19T01:01:50.960Z,78.44
2023-05-19T01:06:57.307Z,78.58
2023-05-19T01:12:02.728Z,78.75
2023-05-19T01:17:23.508Z,78.75
2023-05-19T01:22:55.867Z,78.71
2023-05-19T01:28:18.528Z,79.02
2023-05-19T01:33:25.017Z,79.00
2023-05-19T01:38:30.210Z,79.30
2023-05-19T01:43:36.001Z,79.41
2023-05-19T01:48:42.665Z,79.51
2023-05-19T01:53:46.721Z,79.79
2023-05-19T01:59:04.629Z,79.68
2023-05-19T02:04:44.280Z,79.98
2023-05-19T02:10:12.345Z,80.21
2023-05-19T02:15:23.176Z,80.27
2023-05-19T02:20:27.533Z,80.18
2023-05-19T02:25:32.189Z,80.29
2023-05-19T02:30:37.114Z,80.27
2023-05-19T02:35:41.459Z,80.34
2023-05-19T02:40:45.151Z,80.45
2023-05-19T02:45:49.646Z,80.50
2023-05-19T02:50:55.316Z,80.29
2023-05-19T02:56:00.495Z,80.38
2023-05-19T03:01:04.911Z,80.55
2023-05-19T03:06:10.035Z,81.08
2023-05-19T03:11:16.162Z,81.23
2023-05-19T03:16:20.937Z,81.24
2023-05-19T03:21:24.750Z,81.47
2023-05-19T03:26:29.702Z,81.60
2023-05-19T03:31:33.767Z,81.58
2023-05-19T03:36:40.613Z,81.60
2023-05-19T03:41:44.312Z,81.86
2023-05-19T03:46:51.236Z,81.82
2023-05-19T03:51:56.438Z,82.24
2023-05-19T03:57:00.760Z,81.96
2023-05-19T04:02:05.837Z,81.99
2023-05-19T04:07:10.189Z,82.13
2023-05-19T04:12:14.944Z,82.03
2023-05-19T04:17:19.015Z,81.97
2023-05-19T04:22:23.453Z,81.99
2023-05-19T04:27:29.570Z,82.17
2023-05-19T04:32:33.886Z,81.99
2023-05-19T04:37:39.641Z,81.84
2023-05-19T04:42:46.562Z,81.73
2023-05-19T04:47:52.982Z,81.57
2023-05-19T04:52:59.408Z,81.63
2023-05-19T04:58:02.826Z,81.71
2023-05-19T05:03:08.449Z,81.72
2023-05-19T05:08:12.638Z,81.83
2023-05-19T05:13:17.371Z,81.92
2023-05-19T05:18:22.759Z,81.96
2023-05-19T05:23:27.759Z,81.97
2023-05-19T05:28:33.520Z,81.92
2023-05-19T05:33:39.594Z,81.81
2023-05-19T05:38:43.992Z,81.67
2023-05-19T05:43:48.829Z,81.63
2023-05-19T05:48:56.777Z,81.55
2023-05-19T05:54:02.827Z,81.51
2023-05-19T05:59:08.140Z,81.32
2023-05-19T06:04:12.235Z,81.15
2023-05-19T06:09:17.152Z,80.90
2023-05-19T06:14:22.564Z,80.80
2023-05-19T06:19:27.135Z,80.67
2023-05-19T06:24:32.310Z,80.73
2023-05-19T06:29:36.185Z,80.36
2023-05-19T06:34:41.561Z,79.80
2023-05-19T06:39:45.740Z,79.71
2023-05-19T06:44:51.405Z,79.59
2023-05-19T06:49:55.915Z,78.98
2023-05-19T06:55:00.482Z,79.05
2023-05-19T07:00:07.721Z,78.88
2023-05-19T07:05:12.532Z,78.67
2023-05-19T07:10:17.591Z,78.73
2023-05-19T07:15:22.771Z,78.47
2023-05-19T07:20:27.179Z,78.40
2023-05-19T07:25:31.754Z,78.35
2023-05-19T07:30:38.071Z,77.82
2023-05-19T07:35:43.606Z,77.76
2023-05-19T07:40:49.761Z,77.63
2023-05-19T07:45:56.577Z,77.16
2023-05-19T07:51:00.973Z,76.70
2023-05-19T07:56:05.609Z,75.95
2023-05-19T08:01:09.784Z,75.59
2023-05-19T08:06:14.376Z,75.34
2023-05-19T08:11:20.029Z,75.13
2023-05-19T08:16:24.955Z,74.92
2023-05-19T08:21:29.364Z,74.51
2023-05-19T08:26:35.197Z,74.35
2023-05-19T08:31:41.966Z,74.39
2023-05-19T08:36:47.196Z,74.11
2023-05-19T08:41:51.440Z,74.19
2023-05-19T08:46:58.962Z,74.33
2023-05-19T08:52:24.684Z,74.51
2023-05-19T08:57:31.471Z,74.27
2023-05-19T09:02:50.315Z,74.62
2023-05-19T09:08:05.750Z,74.39
2023-05-19T09:13:11.117Z,74.26
2023-05-19T09:18:15.894Z,74.41
2023-05-19T09:23:21.706Z,74.30
2023-05-19T09:28:28.745Z,74.13
2023-05-19T09:33:36.484Z,73.89
2023-05-19T09:38:41.163Z,73.76
2023-05-19T09:43:58.869Z,73.72
2023-05-19T09:49:12.155Z,73.50
2023-05-19T09:54:17.414Z,73.71
2023-05-19T09:59:26.102Z,73.70
2023-05-19T10:04:32.521Z,73.44
2023-05-19T10:09:38.993Z,73.19
2023-05-19T10:14:43.558Z,73.03
2023-05-19T10:19:51.712Z,72.60
2023-05-19T10:24:58.712Z,72.73
2023-05-19T10:30:38.419Z,72.79
2023-05-19T10:36:09.399Z,72.66
2023-05-19T10:41:37.907Z,72.99
2023-05-19T10:46:43.822Z,72.77
2023-05-19T10:51:49.439Z,72.82
2023-05-19T10:57:00.020Z,72.82
2023-05-19T11:02:10.728Z,72.65
2023-05-19T11:07:23.127Z,72.80
2023-05-19T11:12:31.582Z,72.82
2023-05-19T11:17:40.661Z,72.59
2023-05-19T11:23:09.887Z,72.75
2023-05-19T11:28:30.352Z,72.79
2023-05-19T11:33:41.870Z,72.59
2023-05-19T11:38:52.629Z,72.60
2023-05-19T11:44:04.788Z,72.52
2023-05-19T11:49:21.739Z,72.80
2023-05-19T11:54:37.272Z,72.74
2023-05-19T11:59:47.446Z,72.79
2023-05-19T12:04:54.880Z,72.86
2023-05-19T12:10:00.891Z,73.00
2023-05-19T12:15:05.680Z,72.97
2023-05-19T12:20:12.980Z,72.82
2023-05-19T12:25:18.548Z,72.66
2023-05-19T12:30:32.886Z,72.52
2023-05-19T12:35:40.182Z,72.36
2023-05-19T12:40:48.383Z,72.47
2023-05-19T12:45:55.572Z,72.53
2023-05-19T12:51:01.273Z,72.91
2023-05-19T12:56:17.542Z,72.76
2023-05-19T13:01:25.107Z,73.09
2023-05-19T13:06:31.806Z,73.07
2023-05-19T13:11:38.827Z,73.23
2023-05-19T13:16:44.790Z,72.97
2023-05-19T13:21:51.670Z,72.88
2023-05-19T13:26:58.403Z,72.72
2023-05-19T13:32:04.157Z,73.10
2023-05-19T13:37:15.226Z,72.85
2023-05-19T13:42:21.210Z,73.15
2023-05-19T13:47:26.313Z,73.20
2023-05-19T13:52:31.806Z,73.47
2023-05-19T13:57:37.684Z,73.46
2023-05-19T14:02:44.701Z,73.49
2023-05-19T14:07:49.898Z,73.47
2023-05-19T14:13:25.763Z,73.67
2023-05-19T14:18:22.629Z,73.84
2023-05-19T14:23:32.694Z,73.79
2023-05-19T14:28:39.198Z,73.34
2023-05-19T14:33:44.311Z,73.58
2023-05-19T14:38:49.254Z,73.51
2023-05-19T14:43:54.979Z,73.11
2023-05-19T14:49:03.665Z,73.13
2023-05-19T14:54:10.544Z,73.10
2023-05-19T14:59:17.551Z,73.08
2023-05-19T15:04:26.534Z,73.32
2023-05-19T15:09:34.932Z,73.36
2023-05-19T15:14:40.421Z,73.49
2023-05-19T15:19:46.533Z,73.63
2023-05-19T15:24:52.916Z,73.86
2023-05-19T15:30:00.502Z,73.63
2023-05-19T15:35:06.588Z,73.80
2023-05-19T15:40:16.792Z,73.73
2023-05-19T15:45:24.167Z,73.90
2023-05-19T15:50:30.446Z,73.78
2023-05-19T15:55:36.776Z,74.09
2023-05-19T16:00:44.129Z,74.05
2023-05-19T16:05:54.192Z,73.90
2023-05-19T16:11:02.506Z,74.30
2023-05-19T16:16:08.004Z,74.27
2023-05-19T16:21:14.334Z,74.20
2023-05-19T16:26:19.958Z,74.34
2023-05-19T16:31:25.438Z,74.26
2023-05-19T16:36:32.687Z,74.66
2023-05-19T16:41:40.622Z,74.81
2023-05-19T16:46:46.431Z,74.73
2023-05-19T16:51:53.432Z,74.86
2023-05-19T16:57:04.675Z,75.00
2023-05-19T17:02:09.672Z,74.89
2023-05-19T17:07:17.985Z,75.06
2023-05-19T17:12:23.528Z,74.98
2023-05-19T17:17:28.326Z,75.46
2023-05-19T17:22:34.122Z,75.36
2023-05-19T17:27:39.696Z,75.62
2023-05-19T17:32:45.078Z,75.40
2023-05-19T17:37:50.794Z,75.72
2023-05-19T17:42:57.024Z,75.50
2023-05-19T17:48:02.275Z,75.63
2023-05-19T17:53:07.334Z,75.90
2023-05-19T17:58:13.288Z,75.64
2023-05-19T18:03:19.228Z,75.83
2023-05-19T18:08:27.057Z,76.13
2023-05-19T18:13:32.733Z,76.10
2023-05-19T18:18:41.304Z,76.29
2023-05-19T18:23:47.665Z,76.51
2023-05-19T18:28:53.486Z,76.67
2023-05-19T18:33:58.485Z,76.88
2023-05-19T18:39:06.133Z,76.89
2023-05-19T18:44:12.225Z,76.92
2023-05-19T18:49:17.846Z,77.35
2023-05-19T18:54:23.234Z,77.38
2023-05-19T18:59:28.320Z,77.56
2023-05-19T19:04:32.698Z,77.56
2023-05-19T19:09:38.125Z,77.85
2023-05-19T19:14:43.141Z,78.11
2023-05-19T19:19:47.772Z,78.24
2023-05-19T19:24:53.858Z,78.39
2023-05-19T19:29:59.340Z,78.39
2023-05-19T19:35:04.314Z,78.60
2023-05-19T19:40:10.220Z,78.94
2023-05-19T19:45:15.849Z,79.09
2023-05-19T19:50:21.028Z,78.94
2023-05-19T19:55:26.314Z,79.27
2023-05-19T20:00:31.602Z,79.28
2023-05-19T20:05:38.537Z,79.40
2023-05-19T20:10:43.645Z,79.26
2023-05-19T20:15:48.741Z,79.71
2023-05-19T20:20:54.027Z,79.56
2023-05-19T20:26:10.875Z,79.83
2023-05-19T20:31:17.052Z,79.60
2023-05-19T20:36:20.543Z,79.96
2023-05-19T20:41:25.431Z,80.16
2023-05-19T20:46:30.218Z,80.23
2023-05-19T20:51:35.129Z,80.60
2023-05-19T20:56:39.230Z,80.59
2023-05-19T21:01:43.961Z,80.50
2023-05-19T21:06:48.841Z,80.72
2023-05-19T21:11:58.539Z,80.92
2023-05-19T21:17:04.705Z,80.72
2023-05-19T21:22:10.104Z,81.20
2023-05-19T21:27:15.519Z,81.25
2023-05-19T21:32:20.388Z,81.41
2023-05-19T21:37:24.865Z,81.56
2023-05-19T21:42:30.502Z,81.58
2023-05-19T21:47:35.200Z,81.93
2023-05-19T21:52:39.016Z,81.91
2023-05-19T21:57:43.277Z,82.21
2023-05-19T22:02:47.275Z,82.01
2023-05-19T22:07:52.033Z,82.02
2023-05-19T22:12:58.665Z,82.08
2023-05-19T22:18:04.061Z,82.07
2023-05-19T22:23:09.406Z,82.36
2023-05-19T22:28:14.955Z,82.31
2023-05-19T22:33:20.322Z,82.53
2023-05-19T22:38:24.855Z,82.42
2023-05-19T22:43:28.981Z,82.44
2023-05-19T22:48:37.237Z,82.54
2023-05-19T22:53:43.598Z,82.68
2023-05-19T22:58:48.871Z,82.84
2023-05-19T23:03:55.929Z,82.97
2023-05-19T23:09:05.055Z,83.10
2023-05-19T23:14:10.379Z,82.99
2023-05-19T23:19:15.483Z,83.27
2023-05-19T23:24:19.488Z,83.25
2023-05-19T23:29:24.485Z,83.45
2023-05-19T23:34:32.694Z,83.35
2023-05-19T23:39:38.991Z,83.47
2023-05-19T23:44:43.887Z,83.42
2023-05-19T23:49:49.333Z,83.56
2023-05-19T23:54:55.340Z,83.62
